sensor_id;sensor_type;location;lat;lon;timestamp;temperature;humidity
68801;SHT31;55784;50.734;7.086;2023-11-21T00:02:18;9.43;98.84
68801;SHT31;55784;50.734;7.086;2023-11-21T00:04:43;9.42;98.98
68801;SHT31;55784;50.734;7.086;2023-11-21T00:07:09;9.36;99.28
68801;SHT31;55784;50.734;7.086;2023-11-21T00:09:34;9.30;99.58
68801;SHT31;55784;50.734;7.086;2023-11-21T00:12:01;9.36;99.51
68801;SHT31;55784;50.734;7.086;2023-11-21T00:14:27;9.34;99.54
68801;SHT31;55784;50.734;7.086;2023-11-21T00:16:52;9.34;99.70
68801;SHT31;55784;50.734;7.086;2023-11-21T00:19:18;9.33;99.91
68801;SHT31;55784;50.734;7.086;2023-11-21T00:21:43;9.39;99.68
68801;SHT31;55784;50.734;7.086;2023-11-21T00:24:11;9.43;99.61
68801;SHT31;55784;50.734;7.086;2023-11-21T00:26:39;9.43;99.56
68801;SHT31;55784;50.734;7.086;2023-11-21T00:29:04;9.36;99.82
68801;SHT31;55784;50.734;7.086;2023-11-21T00:31:33;9.29;99.99
68801;SHT31;55784;50.734;7.086;2023-11-21T00:33:58;9.24;99.99
68801;SHT31;55784;50.734;7.086;2023-11-21T00:36:24;9.24;99.99
68801;SHT31;55784;50.734;7.086;2023-11-21T00:38:51;9.20;99.99
68801;SHT31;55784;50.734;7.086;2023-11-21T00:41:16;9.20;99.99
68801;SHT31;55784;50.734;7.086;2023-11-21T00:43:41;9.20;99.99
68801;SHT31;55784;50.734;7.086;2023-11-21T00:46:07;9.18;99.99
68801;SHT31;55784;50.734;7.086;2023-11-21T00:48:33;9.20;99.99
68801;SHT31;55784;50.734;7.086;2023-11-21T00:50:58;9.16;99.99
68801;SHT31;55784;50.734;7.086;2023-11-21T00:53:23;9.19;99.99
68801;SHT31;55784;50.734;7.086;2023-11-21T00:55:49;9.15;99.99
68801;SHT31;55784;50.734;7.086;2023-11-21T00:58:14;9.18;99.99
68801;SHT31;55784;50.734;7.086;2023-11-21T01:00:39;9.12;99.99
68801;SHT31;55784;50.734;7.086;2023-11-21T01:03:05;9.15;99.99
68801;SHT31;55784;50.734;7.086;2023-11-21T01:05:30;9.10;99.99
68801;SHT31;55784;50.734;7.086;2023-11-21T01:07:55;9.10;99.99
68801;SHT31;55784;50.734;7.086;2023-11-21T01:10:21;9.06;99.99
68801;SHT31;55784;50.734;7.086;2023-11-21T01:12:46;9.10;99.99
68801;SHT31;55784;50.734;7.086;2023-11-21T01:15:12;9.08;99.99
68801;SHT31;55784;50.734;7.086;2023-11-21T01:17:38;9.02;99.99
68801;SHT31;55784;50.734;7.086;2023-11-21T01:20:04;9.03;99.99
68801;SHT31;55784;50.734;7.086;2023-11-21T01:22:36;9.03;99.99
68801;SHT31;55784;50.734;7.086;2023-11-21T01:25:02;9.05;99.99
68801;SHT31;55784;50.734;7.086;2023-11-21T01:27:29;9.08;99.99
68801;SHT31;55784;50.734;7.086;2023-11-21T01:29:55;9.09;99.99
68801;SHT31;55784;50.734;7.086;2023-11-21T01:32:20;9.15;99.99
68801;SHT31;55784;50.734;7.086;2023-11-21T01:34:45;9.08;99.99
68801;SHT31;55784;50.734;7.086;2023-11-21T01:37:14;9.08;99.99
68801;SHT31;55784;50.734;7.086;2023-11-21T01:39:39;9.06;99.99
68801;SHT31;55784;50.734;7.086;2023-11-21T01:42:05;9.08;99.99
68801;SHT31;55784;50.734;7.086;2023-11-21T01:44:31;9.03;99.99
68801;SHT31;55784;50.734;7.086;2023-11-21T01:46:56;9.06;99.99
68801;SHT31;55784;50.734;7.086;2023-11-21T01:49:23;9.12;99.99
68801;SHT31;55784;50.734;7.086;2023-11-21T01:51:49;9.06;99.99
68801;SHT31;55784;50.734;7.086;2023-11-21T01:54:17;9.06;99.99
68801;SHT31;55784;50.734;7.086;2023-11-21T01:56:45;9.05;99.99
68801;SHT31;55784;50.734;7.086;2023-11-21T01:59:12;9.03;99.99
68801;SHT31;55784;50.734;7.086;2023-11-21T02:01:39;9.05;99.99
68801;SHT31;55784;50.734;7.086;2023-11-21T02:04:04;9.06;99.99
68801;SHT31;55784;50.734;7.086;2023-11-21T02:06:30;9.02;99.99
68801;SHT31;55784;50.734;7.086;2023-11-21T02:08:56;9.05;99.99
68801;SHT31;55784;50.734;7.086;2023-11-21T02:11:21;9.03;99.99
68801;SHT31;55784;50.734;7.086;2023-11-21T02:13:47;9.05;99.99
68801;SHT31;55784;50.734;7.086;2023-11-21T02:19:36;9.08;99.84
68801;SHT31;55784;50.734;7.086;2023-11-21T02:22:02;9.06;99.99
68801;SHT31;55784;50.734;7.086;2023-11-21T02:24:31;9.03;99.99
68801;SHT31;55784;50.734;7.086;2023-11-21T02:26:57;9.02;99.99
68801;SHT31;55784;50.734;7.086;2023-11-21T02:29:22;9.03;99.99
68801;SHT31;55784;50.734;7.086;2023-11-21T03:08:09;8.89;99.99
68801;SHT31;55784;50.734;7.086;2023-11-21T03:10:41;8.83;99.99
68801;SHT31;55784;50.734;7.086;2023-11-21T03:13:15;8.81;99.99
68801;SHT31;55784;50.734;7.086;2023-11-21T03:15:43;8.76;99.99
68801;SHT31;55784;50.734;7.086;2023-11-21T03:20:52;8.76;99.99
68801;SHT31;55784;50.734;7.086;2023-11-21T03:28:31;8.82;99.99
68801;SHT31;55784;50.734;7.086;2023-11-21T03:33:50;8.78;99.99
68801;SHT31;55784;50.734;7.086;2023-11-21T03:36:19;8.75;99.99
68801;SHT31;55784;50.734;7.086;2023-11-21T03:38:51;8.73;99.99
68801;SHT31;55784;50.734;7.086;2023-11-21T03:41:19;8.71;99.99
68801;SHT31;55784;50.734;7.086;2023-11-21T03:43:45;8.72;99.99
68801;SHT31;55784;50.734;7.086;2023-11-21T03:46:14;8.75;99.99
68801;SHT31;55784;50.734;7.086;2023-11-21T03:48:46;8.73;99.99
68801;SHT31;55784;50.734;7.086;2023-11-21T03:51:31;8.69;99.99
68801;SHT31;55784;50.734;7.086;2023-11-21T03:56:33;8.75;99.99
68801;SHT31;55784;50.734;7.086;2023-11-21T03:59:04;8.71;99.99
68801;SHT31;55784;50.734;7.086;2023-11-21T04:17:11;8.73;99.99
68801;SHT31;55784;50.734;7.086;2023-11-21T04:32:41;8.68;99.99
68801;SHT31;55784;50.734;7.086;2023-11-21T04:35:29;8.68;99.99
68801;SHT31;55784;50.734;7.086;2023-11-21T04:38:06;8.68;99.99
68801;SHT31;55784;50.734;7.086;2023-11-21T04:40:44;8.71;99.99
68801;SHT31;55784;50.734;7.086;2023-11-21T04:43:25;8.68;99.99
68801;SHT31;55784;50.734;7.086;2023-11-21T04:46:03;8.67;99.99
68801;SHT31;55784;50.734;7.086;2023-11-21T04:48:36;8.67;99.99
68801;SHT31;55784;50.734;7.086;2023-11-21T05:04:17;8.72;99.74
68801;SHT31;55784;50.734;7.086;2023-11-21T05:10:44;8.73;99.58
68801;SHT31;55784;50.734;7.086;2023-11-21T05:48:11;8.64;99.99
68801;SHT31;55784;50.734;7.086;2023-11-21T05:50:38;8.65;99.99
68801;SHT31;55784;50.734;7.086;2023-11-21T06:55:34;8.76;98.93
68801;SHT31;55784;50.734;7.086;2023-11-21T06:58:00;8.79;98.89
68801;SHT31;55784;50.734;7.086;2023-11-21T07:00:25;8.81;98.58
68801;SHT31;55784;50.734;7.086;2023-11-21T07:02:56;8.89;98.41
68801;SHT31;55784;50.734;7.086;2023-11-21T07:05:22;8.88;98.33
68801;SHT31;55784;50.734;7.086;2023-11-21T07:07:48;8.81;98.50
68801;SHT31;55784;50.734;7.086;2023-11-21T07:10:16;8.82;98.31
68801;SHT31;55784;50.734;7.086;2023-11-21T07:12:42;8.81;98.70
68801;SHT31;55784;50.734;7.086;2023-11-21T07:15:08;8.86;98.70
68801;SHT31;55784;50.734;7.086;2023-11-21T07:17:36;8.85;98.54
68801;SHT31;55784;50.734;7.086;2023-11-21T07:20:03;8.86;98.79
68801;SHT31;55784;50.734;7.086;2023-11-21T07:22:29;8.88;98.41
68801;SHT31;55784;50.734;7.086;2023-11-21T07:24:55;8.86;98.67
68801;SHT31;55784;50.734;7.086;2023-11-21T07:27:21;8.93;98.75
68801;SHT31;55784;50.734;7.086;2023-11-21T07:29:47;8.95;98.56
68801;SHT31;55784;50.734;7.086;2023-11-21T07:32:13;8.93;98.50
68801;SHT31;55784;50.734;7.086;2023-11-21T07:34:40;8.90;98.33
68801;SHT31;55784;50.734;7.086;2023-11-21T07:37:05;8.88;98.54
68801;SHT31;55784;50.734;7.086;2023-11-21T07:39:30;8.92;97.97
68801;SHT31;55784;50.734;7.086;2023-11-21T07:41:56;8.95;97.98
68801;SHT31;55784;50.734;7.086;2023-11-21T07:44:23;8.98;97.93
68801;SHT31;55784;50.734;7.086;2023-11-21T07:46:59;8.99;97.90
68801;SHT31;55784;50.734;7.086;2023-11-21T07:49:27;9.05;97.84
68801;SHT31;55784;50.734;7.086;2023-11-21T07:51:53;9.02;97.89
68801;SHT31;55784;50.734;7.086;2023-11-21T07:54:27;9.08;97.85
68801;SHT31;55784;50.734;7.086;2023-11-21T07:56:58;9.15;97.81
68801;SHT31;55784;50.734;7.086;2023-11-21T07:59:40;9.18;97.52
68801;SHT31;55784;50.734;7.086;2023-11-21T08:02:22;9.15;97.48
68801;SHT31;55784;50.734;7.086;2023-11-21T08:05:09;9.26;97.32
68801;SHT31;55784;50.734;7.086;2023-11-21T08:07:49;9.36;97.38
68801;SHT31;55784;50.734;7.086;2023-11-21T08:10:29;9.33;97.00
68801;SHT31;55784;50.734;7.086;2023-11-21T08:13:04;9.30;97.10
68801;SHT31;55784;50.734;7.086;2023-11-21T08:15:35;9.36;97.07
68801;SHT31;55784;50.734;7.086;2023-11-21T08:18:02;9.39;96.75
68801;SHT31;55784;50.734;7.086;2023-11-21T08:20:27;9.42;96.94
68801;SHT31;55784;50.734;7.086;2023-11-21T08:22:53;9.50;96.58
68801;SHT31;55784;50.734;7.086;2023-11-21T08:25:19;9.53;96.54
68801;SHT31;55784;50.734;7.086;2023-11-21T08:27:46;9.51;96.25
68801;SHT31;55784;50.734;7.086;2023-11-21T08:30:11;9.57;96.08
68801;SHT31;55784;50.734;7.086;2023-11-21T08:32:39;9.63;95.77
68801;SHT31;55784;50.734;7.086;2023-11-21T08:35:04;9.73;96.38
68801;SHT31;55784;50.734;7.086;2023-11-21T08:37:30;9.81;95.64
68801;SHT31;55784;50.734;7.086;2023-11-21T08:39:58;9.78;95.22
68801;SHT31;55784;50.734;7.086;2023-11-21T08:42:24;9.93;95.02
68801;SHT31;55784;50.734;7.086;2023-11-21T08:44:50;9.85;95.10
68801;SHT31;55784;50.734;7.086;2023-11-21T08:47:16;10.05;95.32
68801;SHT31;55784;50.734;7.086;2023-11-21T08:49:42;10.04;94.55
68801;SHT31;55784;50.734;7.086;2023-11-21T08:52:08;9.97;94.61
68801;SHT31;55784;50.734;7.086;2023-11-21T08:54:33;9.90;94.81
68801;SHT31;55784;50.734;7.086;2023-11-21T08:56:59;9.80;94.92
68801;SHT31;55784;50.734;7.086;2023-11-21T08:59:25;9.78;95.96
68801;SHT31;55784;50.734;7.086;2023-11-21T09:01:51;9.93;95.94
68801;SHT31;55784;50.734;7.086;2023-11-21T09:04:16;9.78;95.47
68801;SHT31;55784;50.734;7.086;2023-11-21T09:06:42;9.85;95.46
68801;SHT31;55784;50.734;7.086;2023-11-21T09:09:07;9.85;95.19
68801;SHT31;55784;50.734;7.086;2023-11-21T09:11:35;9.91;95.27
68801;SHT31;55784;50.734;7.086;2023-11-21T09:14:10;9.81;95.71
68801;SHT31;55784;50.734;7.086;2023-11-21T09:16:38;9.85;95.74
68801;SHT31;55784;50.734;7.086;2023-11-21T09:19:04;9.71;95.80
68801;SHT31;55784;50.734;7.086;2023-11-21T09:21:30;9.63;96.29
68801;SHT31;55784;50.734;7.086;2023-11-21T09:23:56;9.73;96.41
68801;SHT31;55784;50.734;7.086;2023-11-21T09:26:21;9.70;96.36
68801;SHT31;55784;50.734;7.086;2023-11-21T09:28:46;9.69;95.78
68801;SHT31;55784;50.734;7.086;2023-11-21T09:31:13;9.71;96.00
68801;SHT31;55784;50.734;7.086;2023-11-21T09:33:42;9.70;95.86
68801;SHT31;55784;50.734;7.086;2023-11-21T09:36:11;9.83;95.43
68801;SHT31;55784;50.734;7.086;2023-11-21T09:38:37;9.93;95.21
68801;SHT31;55784;50.734;7.086;2023-11-21T09:41:05;9.98;95.22
68801;SHT31;55784;50.734;7.086;2023-11-21T09:43:33;9.97;95.36
68801;SHT31;55784;50.734;7.086;2023-11-21T09:46:04;10.02;95.58
68801;SHT31;55784;50.734;7.086;2023-11-21T09:48:32;9.99;95.07
68801;SHT31;55784;50.734;7.086;2023-11-21T09:50:59;10.04;95.31
68801;SHT31;55784;50.734;7.086;2023-11-21T09:53:26;10.04;95.07
68801;SHT31;55784;50.734;7.086;2023-11-21T09:55:53;10.09;95.44
68801;SHT31;55784;50.734;7.086;2023-11-21T09:58:20;10.16;95.15
68801;SHT31;55784;50.734;7.086;2023-11-21T10:00:48;10.14;95.44
68801;SHT31;55784;50.734;7.086;2023-11-21T10:03:14;10.19;95.46
68801;SHT31;55784;50.734;7.086;2023-11-21T10:05:41;10.19;95.27
68801;SHT31;55784;50.734;7.086;2023-11-21T10:08:11;10.28;94.47
68801;SHT31;55784;50.734;7.086;2023-11-21T10:10:37;10.29;94.63
68801;SHT31;55784;50.734;7.086;2023-11-21T10:13:05;10.39;93.92
68801;SHT31;55784;50.734;7.086;2023-11-21T10:15:34;10.28;94.73
68801;SHT31;55784;50.734;7.086;2023-11-21T10:18:03;10.39;94.43
68801;SHT31;55784;50.734;7.086;2023-11-21T10:20:30;10.32;94.54
68801;SHT31;55784;50.734;7.086;2023-11-21T10:22:55;10.52;94.38
68801;SHT31;55784;50.734;7.086;2023-11-21T10:25:22;10.46;93.53
68801;SHT31;55784;50.734;7.086;2023-11-21T10:27:48;10.41;94.25
68801;SHT31;55784;50.734;7.086;2023-11-21T10:30:17;10.44;94.41
68801;SHT31;55784;50.734;7.086;2023-11-21T10:32:43;10.46;93.51
68801;SHT31;55784;50.734;7.086;2023-11-21T10:35:09;10.56;93.53
68801;SHT31;55784;50.734;7.086;2023-11-21T10:37:39;10.59;93.91
68801;SHT31;55784;50.734;7.086;2023-11-21T10:40:11;10.52;93.33
68801;SHT31;55784;50.734;7.086;2023-11-21T10:42:40;10.55;93.49
68801;SHT31;55784;50.734;7.086;2023-11-21T10:45:06;10.55;93.20
68801;SHT31;55784;50.734;7.086;2023-11-21T10:47:39;10.50;93.76
68801;SHT31;55784;50.734;7.086;2023-11-21T10:50:05;10.53;93.85
68801;SHT31;55784;50.734;7.086;2023-11-21T10:52:31;10.55;93.70
68801;SHT31;55784;50.734;7.086;2023-11-21T10:54:56;10.59;93.05
68801;SHT31;55784;50.734;7.086;2023-11-21T10:57:24;10.52;93.42
68801;SHT31;55784;50.734;7.086;2023-11-21T10:59:54;10.53;93.45
68801;SHT31;55784;50.734;7.086;2023-11-21T11:02:25;10.50;93.66
68801;SHT31;55784;50.734;7.086;2023-11-21T11:04:54;10.41;94.11
68801;SHT31;55784;50.734;7.086;2023-11-21T11:07:21;10.46;94.50
68801;SHT31;55784;50.734;7.086;2023-11-21T11:09:50;10.41;94.44
68801;SHT31;55784;50.734;7.086;2023-11-21T11:12:16;10.39;94.60
68801;SHT31;55784;50.734;7.086;2023-11-21T11:14:42;10.38;94.18
68801;SHT31;55784;50.734;7.086;2023-11-21T11:17:10;10.32;94.36
68801;SHT31;55784;50.734;7.086;2023-11-21T11:19:36;10.34;94.33
68801;SHT31;55784;50.734;7.086;2023-11-21T11:22:32;10.35;94.61
68801;SHT31;55784;50.734;7.086;2023-11-21T11:28:09;10.59;94.02
68801;SHT31;55784;50.734;7.086;2023-11-21T11:34:46;10.62;93.56
68801;SHT31;55784;50.734;7.086;2023-11-21T11:37:00;10.59;93.86
68801;SHT31;55784;50.734;7.086;2023-11-21T11:39:30;10.57;93.53
68801;SHT31;55784;50.734;7.086;2023-11-21T11:41:56;10.46;93.73
68801;SHT31;55784;50.734;7.086;2023-11-21T11:50:04;10.44;93.84
68801;SHT31;55784;50.734;7.086;2023-11-21T11:55:15;10.46;94.22
68801;SHT31;55784;50.734;7.086;2023-11-21T11:57:52;10.48;94.50
68801;SHT31;55784;50.734;7.086;2023-11-21T12:02:54;10.60;94.02
68801;SHT31;55784;50.734;7.086;2023-11-21T12:05:21;10.65;93.50
68801;SHT31;55784;50.734;7.086;2023-11-21T12:07:53;10.72;92.97
68801;SHT31;55784;50.734;7.086;2023-11-21T12:10:21;10.84;92.81
68801;SHT31;55784;50.734;7.086;2023-11-21T12:12:56;10.73;92.01
68801;SHT31;55784;50.734;7.086;2023-11-21T12:15:22;10.70;92.40
68801;SHT31;55784;50.734;7.086;2023-11-21T12:17:49;10.70;92.57
68801;SHT31;55784;50.734;7.086;2023-11-21T12:20:16;10.80;92.72
68801;SHT31;55784;50.734;7.086;2023-11-21T12:22:44;10.76;92.43
68801;SHT31;55784;50.734;7.086;2023-11-21T12:25:13;10.75;93.17
68801;SHT31;55784;50.734;7.086;2023-11-21T12:27:41;10.72;92.96
68801;SHT31;55784;50.734;7.086;2023-11-21T12:30:07;10.80;93.07
68801;SHT31;55784;50.734;7.086;2023-11-21T12:32:38;10.77;92.43
68801;SHT31;55784;50.734;7.086;2023-11-21T12:35:04;10.81;92.54
68801;SHT31;55784;50.734;7.086;2023-11-21T12:37:31;10.95;92.33
68801;SHT31;55784;50.734;7.086;2023-11-21T12:39:57;11.00;91.55
68801;SHT31;55784;50.734;7.086;2023-11-21T12:42:23;10.93;90.87
68801;SHT31;55784;50.734;7.086;2023-11-21T12:45:08;10.96;91.61
68801;SHT31;55784;50.734;7.086;2023-11-21T12:47:39;11.03;91.46
68801;SHT31;55784;50.734;7.086;2023-11-21T12:50:06;11.06;90.82
68801;SHT31;55784;50.734;7.086;2023-11-21T12:52:32;11.10;90.82
68801;SHT31;55784;50.734;7.086;2023-11-21T12:54:57;11.03;91.20
68801;SHT31;55784;50.734;7.086;2023-11-21T12:57:27;11.00;90.62
68801;SHT31;55784;50.734;7.086;2023-11-21T12:59:57;10.97;91.28
68801;SHT31;55784;50.734;7.086;2023-11-21T13:02:26;10.93;91.53
68801;SHT31;55784;50.734;7.086;2023-11-21T13:04:52;10.90;91.51
68801;SHT31;55784;50.734;7.086;2023-11-21T13:07:18;10.83;91.74
68801;SHT31;55784;50.734;7.086;2023-11-21T13:09:45;10.93;92.05
68801;SHT31;55784;50.734;7.086;2023-11-21T13:12:11;10.93;91.36
68801;SHT31;55784;50.734;7.086;2023-11-21T13:14:39;10.96;91.04
68801;SHT31;55784;50.734;7.086;2023-11-21T13:17:05;10.90;90.98
68801;SHT31;55784;50.734;7.086;2023-11-21T13:19:30;11.00;91.02
68801;SHT31;55784;50.734;7.086;2023-11-21T13:21:56;10.95;91.18
68801;SHT31;55784;50.734;7.086;2023-11-21T13:24:21;11.01;91.24
68801;SHT31;55784;50.734;7.086;2023-11-21T13:26:47;11.01;91.32
68801;SHT31;55784;50.734;7.086;2023-11-21T13:29:13;11.09;91.47
68801;SHT31;55784;50.734;7.086;2023-11-21T13:31:38;11.10;90.71
68801;SHT31;55784;50.734;7.086;2023-11-21T13:34:04;11.10;91.53
68801;SHT31;55784;50.734;7.086;2023-11-21T13:36:30;11.03;91.43
68801;SHT31;55784;50.734;7.086;2023-11-21T13:38:58;11.07;91.90
68801;SHT31;55784;50.734;7.086;2023-11-21T13:41:24;11.01;91.25
68801;SHT31;55784;50.734;7.086;2023-11-21T13:43:55;10.93;91.34
68801;SHT31;55784;50.734;7.086;2023-11-21T13:46:29;10.97;91.78
68801;SHT31;55784;50.734;7.086;2023-11-21T13:48:59;10.86;90.94
68801;SHT31;55784;50.734;7.086;2023-11-21T13:51:25;10.75;91.06
68801;SHT31;55784;50.734;7.086;2023-11-21T13:54:05;10.76;91.70
68801;SHT31;55784;50.734;7.086;2023-11-21T13:56:35;10.84;91.72
68801;SHT31;55784;50.734;7.086;2023-11-21T13:59:00;10.90;91.67
68801;SHT31;55784;50.734;7.086;2023-11-21T14:01:34;10.84;91.23
68801;SHT31;55784;50.734;7.086;2023-11-21T14:04:32;10.84;90.68
68801;SHT31;55784;50.734;7.086;2023-11-21T14:06:57;10.76;90.80
68801;SHT31;55784;50.734;7.086;2023-11-21T14:09:25;10.80;90.61
68801;SHT31;55784;50.734;7.086;2023-11-21T14:11:58;10.77;91.54
68801;SHT31;55784;50.734;7.086;2023-11-21T14:14:26;10.67;90.99
68801;SHT31;55784;50.734;7.086;2023-11-21T14:16:53;10.70;91.46
68801;SHT31;55784;50.734;7.086;2023-11-21T14:19:19;10.69;90.90
68801;SHT31;55784;50.734;7.086;2023-11-21T14:21:44;10.70;91.24
68801;SHT31;55784;50.734;7.086;2023-11-21T14:24:13;10.69;91.49
68801;SHT31;55784;50.734;7.086;2023-11-21T14:26:42;10.73;91.78
68801;SHT31;55784;50.734;7.086;2023-11-21T14:29:08;10.72;92.12
68801;SHT31;55784;50.734;7.086;2023-11-21T14:31:34;10.63;92.46
68801;SHT31;55784;50.734;7.086;2023-11-21T14:34:00;10.65;92.32
68801;SHT31;55784;50.734;7.086;2023-11-21T14:36:28;10.65;92.18
68801;SHT31;55784;50.734;7.086;2023-11-21T14:38:53;10.72;92.27
68801;SHT31;55784;50.734;7.086;2023-11-21T14:41:19;10.69;92.43
68801;SHT31;55784;50.734;7.086;2023-11-21T14:43:44;10.67;92.43
68801;SHT31;55784;50.734;7.086;2023-11-21T14:46:12;10.65;92.13
68801;SHT31;55784;50.734;7.086;2023-11-21T14:48:41;10.69;91.97
68801;SHT31;55784;50.734;7.086;2023-11-21T14:51:13;10.62;91.81
68801;SHT31;55784;50.734;7.086;2023-11-21T14:53:56;10.59;92.38
68801;SHT31;55784;50.734;7.086;2023-11-21T14:56:26;10.63;91.91
68801;SHT31;55784;50.734;7.086;2023-11-21T14:58:54;10.57;92.15
68801;SHT31;55784;50.734;7.086;2023-11-21T15:01:21;10.56;92.59
68801;SHT31;55784;50.734;7.086;2023-11-21T15:04:00;10.57;92.45
68801;SHT31;55784;50.734;7.086;2023-11-21T15:06:26;10.57;92.62
68801;SHT31;55784;50.734;7.086;2023-11-21T15:08:53;10.57;92.94
68801;SHT31;55784;50.734;7.086;2023-11-21T15:11:35;10.56;92.62
68801;SHT31;55784;50.734;7.086;2023-11-21T15:14:02;10.52;92.88
68801;SHT31;55784;50.734;7.086;2023-11-21T15:16:32;10.50;92.94
68801;SHT31;55784;50.734;7.086;2023-11-21T15:18:57;10.52;92.72
68801;SHT31;55784;50.734;7.086;2023-11-21T15:21:23;10.53;92.86
68801;SHT31;55784;50.734;7.086;2023-11-21T15:23:49;10.53;92.83
68801;SHT31;55784;50.734;7.086;2023-11-21T15:26:17;10.56;92.47
68801;SHT31;55784;50.734;7.086;2023-11-21T15:28:43;10.53;92.72
68801;SHT31;55784;50.734;7.086;2023-11-21T15:31:08;10.50;92.99
68801;SHT31;55784;50.734;7.086;2023-11-21T15:33:34;10.48;93.26
68801;SHT31;55784;50.734;7.086;2023-11-21T15:36:02;10.48;93.58
68801;SHT31;55784;50.734;7.086;2023-11-21T15:38:29;10.45;93.76
68801;SHT31;55784;50.734;7.086;2023-11-21T15:40:54;10.38;94.88
68801;SHT31;55784;50.734;7.086;2023-11-21T15:43:20;10.29;95.87
68801;SHT31;55784;50.734;7.086;2023-11-21T15:45:45;10.16;96.26
68801;SHT31;55784;50.734;7.086;2023-11-21T15:48:10;10.16;96.68
68801;SHT31;55784;50.734;7.086;2023-11-21T15:50:36;10.19;97.32
68801;SHT31;55784;50.734;7.086;2023-11-21T15:53:02;10.19;96.89
68801;SHT31;55784;50.734;7.086;2023-11-21T15:55:30;10.08;96.93
68801;SHT31;55784;50.734;7.086;2023-11-21T15:57:56;10.11;96.67
68801;SHT31;55784;50.734;7.086;2023-11-21T16:00:21;10.14;96.54
68801;SHT31;55784;50.734;7.086;2023-11-21T16:02:47;10.16;96.48
68801;SHT31;55784;50.734;7.086;2023-11-21T16:05:13;10.19;96.29
68801;SHT31;55784;50.734;7.086;2023-11-21T16:07:39;10.22;96.54
68801;SHT31;55784;50.734;7.086;2023-11-21T16:10:09;10.22;96.05
68801;SHT31;55784;50.734;7.086;2023-11-21T16:12:40;10.21;96.30
68801;SHT31;55784;50.734;7.086;2023-11-21T16:15:07;10.19;96.01
68801;SHT31;55784;50.734;7.086;2023-11-21T16:17:36;10.19;96.52
68801;SHT31;55784;50.734;7.086;2023-11-21T16:20:14;10.24;96.10
68801;SHT31;55784;50.734;7.086;2023-11-21T16:22:56;10.19;96.35
68801;SHT31;55784;50.734;7.086;2023-11-21T16:25:24;10.21;96.88
68801;SHT31;55784;50.734;7.086;2023-11-21T16:27:49;10.24;96.63
68801;SHT31;55784;50.734;7.086;2023-11-21T16:30:18;10.22;96.80
68801;SHT31;55784;50.734;7.086;2023-11-21T16:32:43;10.25;97.14
68801;SHT31;55784;50.734;7.086;2023-11-21T16:35:09;10.25;96.93
68801;SHT31;55784;50.734;7.086;2023-11-21T16:37:36;10.26;96.82
68801;SHT31;55784;50.734;7.086;2023-11-21T16:40:01;10.22;97.04
68801;SHT31;55784;50.734;7.086;2023-11-21T16:42:32;10.21;96.89
68801;SHT31;55784;50.734;7.086;2023-11-21T16:44:59;10.21;97.12
68801;SHT31;55784;50.734;7.086;2023-11-21T16:47:24;10.12;97.19
68801;SHT31;55784;50.734;7.086;2023-11-21T16:49:50;10.11;97.36
68801;SHT31;55784;50.734;7.086;2023-11-21T16:52:16;10.14;97.52
68801;SHT31;55784;50.734;7.086;2023-11-21T16:54:42;10.11;97.47
68801;SHT31;55784;50.734;7.086;2023-11-21T16:57:07;10.09;97.77
68801;SHT31;55784;50.734;7.086;2023-11-21T16:59:34;10.05;97.70
68801;SHT31;55784;50.734;7.086;2023-11-21T17:01:59;10.06;97.73
68801;SHT31;55784;50.734;7.086;2023-11-21T17:04:24;10.05;97.89
68801;SHT31;55784;50.734;7.086;2023-11-21T17:06:49;10.04;98.01
68801;SHT31;55784;50.734;7.086;2023-11-21T17:09:15;10.06;98.22
68801;SHT31;55784;50.734;7.086;2023-11-21T17:11:48;10.02;98.03
68801;SHT31;55784;50.734;7.086;2023-11-21T17:14:13;10.02;98.03
68801;SHT31;55784;50.734;7.086;2023-11-21T17:16:39;9.99;97.89
68801;SHT31;55784;50.734;7.086;2023-11-21T17:19:10;9.98;97.52
68801;SHT31;55784;50.734;7.086;2023-11-21T17:21:36;9.99;97.52
68801;SHT31;55784;50.734;7.086;2023-11-21T17:24:04;9.98;97.44
68801;SHT31;55784;50.734;7.086;2023-11-21T17:26:29;9.99;97.23
68801;SHT31;55784;50.734;7.086;2023-11-21T17:28:56;9.97;96.84
68801;SHT31;55784;50.734;7.086;2023-11-21T17:31:22;9.95;96.49
68801;SHT31;55784;50.734;7.086;2023-11-21T17:33:48;9.94;96.58
68801;SHT31;55784;50.734;7.086;2023-11-21T17:36:13;9.95;96.44
68801;SHT31;55784;50.734;7.086;2023-11-21T17:38:40;10.01;96.54
68801;SHT31;55784;50.734;7.086;2023-11-21T17:41:05;10.01;96.41
68801;SHT31;55784;50.734;7.086;2023-11-21T17:43:31;9.99;96.24
68801;SHT31;55784;50.734;7.086;2023-11-21T17:46:04;9.94;96.04
68801;SHT31;55784;50.734;7.086;2023-11-21T17:48:30;9.91;95.89
68801;SHT31;55784;50.734;7.086;2023-11-21T17:50:56;9.88;95.82
68801;SHT31;55784;50.734;7.086;2023-11-21T17:53:21;9.88;95.71
68801;SHT31;55784;50.734;7.086;2023-11-21T17:55:47;9.85;95.53
68801;SHT31;55784;50.734;7.086;2023-11-21T17:58:13;9.84;95.57
68801;SHT31;55784;50.734;7.086;2023-11-21T18:00:38;9.83;95.65
68801;SHT31;55784;50.734;7.086;2023-11-21T18:03:04;9.80;95.72
68801;SHT31;55784;50.734;7.086;2023-11-21T18:05:29;9.83;95.58
68801;SHT31;55784;50.734;7.086;2023-11-21T18:07:55;9.83;95.57
68801;SHT31;55784;50.734;7.086;2023-11-21T18:10:21;9.80;97.38
68801;SHT31;55784;50.734;7.086;2023-11-21T18:12:46;9.54;98.30
68801;SHT31;55784;50.734;7.086;2023-11-21T18:15:11;9.48;98.17
68801;SHT31;55784;50.734;7.086;2023-11-21T18:17:39;9.47;98.90
68801;SHT31;55784;50.734;7.086;2023-11-21T18:20:06;9.43;98.75
68801;SHT31;55784;50.734;7.086;2023-11-21T18:22:31;9.42;98.48
68801;SHT31;55784;50.734;7.086;2023-11-21T18:24:57;9.34;98.25
68801;SHT31;55784;50.734;7.086;2023-11-21T18:27:22;9.30;98.02
68801;SHT31;55784;50.734;7.086;2023-11-21T18:29:56;9.22;97.50
68801;SHT31;55784;50.734;7.086;2023-11-21T18:32:23;9.20;97.40
68801;SHT31;55784;50.734;7.086;2023-11-21T18:34:49;9.15;96.63
68801;SHT31;55784;50.734;7.086;2023-11-21T18:37:18;9.19;97.17
68801;SHT31;55784;50.734;7.086;2023-11-21T18:39:44;9.20;97.41
68801;SHT31;55784;50.734;7.086;2023-11-21T18:42:11;9.16;96.24
68801;SHT31;55784;50.734;7.086;2023-11-21T18:44:36;9.09;95.98
68801;SHT31;55784;50.734;7.086;2023-11-21T18:47:02;9.12;96.24
68801;SHT31;55784;50.734;7.086;2023-11-21T18:49:27;9.06;94.93
68801;SHT31;55784;50.734;7.086;2023-11-21T18:51:54;9.05;94.39
68801;SHT31;55784;50.734;7.086;2023-11-21T18:54:21;9.02;94.02
68801;SHT31;55784;50.734;7.086;2023-11-21T18:56:46;8.99;93.69
68801;SHT31;55784;50.734;7.086;2023-11-21T18:59:12;8.95;93.83
68801;SHT31;55784;50.734;7.086;2023-11-21T19:01:37;8.90;93.77
68801;SHT31;55784;50.734;7.086;2023-11-21T19:04:04;8.96;94.50
68801;SHT31;55784;50.734;7.086;2023-11-21T19:06:29;8.90;92.92
68801;SHT31;55784;50.734;7.086;2023-11-21T19:08:54;8.86;92.99
68801;SHT31;55784;50.734;7.086;2023-11-21T19:11:23;8.83;92.68
68801;SHT31;55784;50.734;7.086;2023-11-21T19:13:49;8.85;92.48
68801;SHT31;55784;50.734;7.086;2023-11-21T19:16:14;8.76;92.71
68801;SHT31;55784;50.734;7.086;2023-11-21T19:18:43;8.79;92.77